Time,TemperatureF,DewpointF,PressureIn,WindDirection,WindDirectionDegrees,WindSpeedMPH,WindSpeedGustMPH,Humidity,HourlyPrecipIn,Conditions,Clouds,dailyrainin,SoftwareType,DateUTC
2013-06-20 00:01:00,47.4,44.6,18.34,WSW,238,0.0,0.0,90,0.00,,,0.00,Wunderground v.1.15,2013-06-20 04:01:00,
2013-06-20 00:11:00,47.2,44.4,18.34,WSW,238,0.0,0.0,90,0.00,,,0.00,Wunderground v.1.15,2013-06-20 04:11:00,
2013-06-20 00:16:00,47.2,44.7,18.34,WSW,238,0.0,0.0,91,0.00,,,0.00,Wunderground v.1.15,2013-06-20 04:16:00,
2013-06-20 00:21:00,47.1,44.6,18.34,WSW,238,0.0,0.0,91,0.00,,,0.00,Wunderground v.1.15,2013-06-20 04:21:00,
2013-06-20 00:26:00,47.1,44.6,18.34,WSW,238,0.0,0.0,91,0.00,,,0.00,Wunderground v.1.15,2013-06-20 04:26:00,
2013-06-20 00:31:00,47.0,44.5,18.34,WSW,238,0.0,0.0,91,0.00,,,0.00,Wunderground v.1.15,2013-06-20 04:31:00,
2013-06-20 00:36:00,46.9,44.4,18.34,WSW,238,0.0,0.0,91,0.00,,,0.00,Wunderground v.1.15,2013-06-20 04:36:00,
2013-06-20 00:41:00,46.8,44.3,18.34,WSW,238,0.0,0.0,91,0.00,,,0.00,Wunderground v.1.15,2013-06-20 04:41:00,
2013-06-20 00:51:00,46.7,44.2,18.34,WSW,238,0.0,0.0,91,0.00,,,0.00,Wunderground v.1.15,2013-06-20 04:51:00,
2013-06-20 00:56:00,46.6,44.1,18.34,WSW,238,0.0,0.0,91,0.00,,,0.00,Wunderground v.1.15,2013-06-20 04:56:00,
2013-06-20 01:01:00,46.5,44.0,18.34,WSW,238,0.0,0.0,91,0.00,,,0.00,Wunderground v.1.15,2013-06-20 05:01:00,
2013-06-20 01:06:00,46.4,43.9,18.34,WSW,238,0.0,0.0,91,0.00,,,0.00,Wunderground v.1.15,2013-06-20 05:06:00,
2013-06-20 01:10:00,46.3,43.8,18.34,WSW,238,0.0,0.0,91,0.00,,,0.00,Wunderground v.1.15,2013-06-20 05:10:00,
2013-06-20 01:15:00,46.3,43.8,18.34,WSW,238,0.0,0.0,91,0.00,,,0.00,Wunderground v.1.15,2013-06-20 05:15:00,
2013-06-20 01:21:00,46.1,43.6,18.34,WSW,238,0.0,0.0,91,0.00,,,0.00,Wunderground v.1.15,2013-06-20 05:21:00,
2013-06-20 01:31:00,45.8,43.3,18.34,WSW,238,0.0,0.0,91,0.00,,,0.00,Wunderground v.1.15,2013-06-20 05:31:00,
2013-06-20 01:36:00,45.7,43.2,18.34,WSW,238,0.0,0.0,91,0.00,,,0.00,Wunderground v.1.15,2013-06-20 05:36:00,
2013-06-20 01:46:00,45.6,43.4,18.34,WSW,238,0.0,0.0,92,0.00,,,0.00,Wunderground v.1.15,2013-06-20 05:46:00,
2013-06-20 01:51:00,45.7,43.5,18.34,WSW,238,0.0,0.0,92,0.00,,,0.00,Wunderground v.1.15,2013-06-20 05:51:00,
2013-06-20 01:56:00,45.8,43.6,18.34,WSW,238,0.0,0.0,92,0.00,,,0.00,Wunderground v.1.15,2013-06-20 05:56:00,
2013-06-20 02:01:00,45.8,43.6,18.34,WSW,238,0.0,0.0,92,0.00,,,0.00,Wunderground v.1.15,2013-06-20 06:01:00,
2013-06-20 02:11:00,46.0,43.8,18.34,WSW,238,0.0,0.0,92,0.00,,,0.00,Wunderground v.1.15,2013-06-20 06:11:00,
2013-06-20 02:16:00,46.2,44.0,18.34,WSW,238,0.0,0.0,92,0.00,,,0.00,Wunderground v.1.15,2013-06-20 06:16:00,
2013-06-20 02:21:00,46.3,44.1,18.34,WSW,238,0.0,0.0,92,0.00,,,0.00,Wunderground v.1.15,2013-06-20 06:21:00,
2013-06-20 02:26:00,46.4,44.2,18.34,WSW,238,0.0,0.0,92,0.00,,,0.00,Wunderground v.1.15,2013-06-20 06:26:00,
2013-06-20 02:31:00,46.5,44.3,18.34,WSW,238,0.0,0.0,92,0.00,,,0.00,Wunderground v.1.15,2013-06-20 06:31:00,
2013-06-20 02:36:00,46.7,44.2,18.34,WSW,238,0.0,0.0,91,0.00,,,0.00,Wunderground v.1.15,2013-06-20 06:36:00,
2013-06-20 02:41:00,47.0,44.5,18.34,WSW,238,0.0,0.0,91,0.00,,,0.00,Wunderground v.1.15,2013-06-20 06:41:00,
2013-06-20 02:46:00,47.0,44.5,18.34,WSW,238,0.0,0.0,91,0.00,,,0.00,Wunderground v.1.15,2013-06-20 06:46:00,
2013-06-20 02:51:00,46.9,44.4,18.34,WSW,238,0.0,0.0,91,0.00,,,0.00,Wunderground v.1.15,2013-06-20 06:51:00,
2013-06-20 02:56:00,46.9,44.4,18.34,WSW,238,0.0,0.0,91,0.00,,,0.00,Wunderground v.1.15,2013-06-20 06:56:00,
2013-06-20 03:01:00,47.0,44.5,18.34,WSW,238,0.0,0.0,91,0.00,,,0.00,Wunderground v.1.15,2013-06-20 07:01:00,
2013-06-20 03:11:00,47.1,44.6,18.34,WSW,238,0.0,0.0,91,0.00,,,0.00,Wunderground v.1.15,2013-06-20 07:11:00,
2013-06-20 03:16:00,47.1,44.6,18.34,WSW,238,0.0,0.0,91,0.00,,,0.00,Wunderground v.1.15,2013-06-20 07:16:00,
2013-06-20 03:21:00,46.9,44.1,18.34,WSW,238,0.0,0.0,90,0.00,,,0.00,Wunderground v.1.15,2013-06-20 07:21:00,
2013-06-20 03:26:00,46.8,44.3,18.34,WSW,238,0.0,0.0,91,0.00,,,0.00,Wunderground v.1.15,2013-06-20 07:26:00,
2013-06-20 03:36:00,46.7,44.2,18.34,WSW,238,0.0,0.0,91,0.00,,,0.00,Wunderground v.1.15,2013-06-20 07:36:00,
2013-06-20 03:41:00,46.8,44.3,18.34,WSW,238,0.0,0.0,91,0.00,,,0.00,Wunderground v.1.15,2013-06-20 07:41:00,
2013-06-20 03:46:00,46.9,44.4,18.34,WSW,238,0.0,0.0,91,0.00,,,0.00,Wunderground v.1.15,2013-06-20 07:46:00,
2013-06-20 03:55:00,46.9,44.1,18.34,WSW,238,0.0,0.0,90,0.00,,,0.00,Wunderground v.1.15,2013-06-20 07:55:00,
2013-06-20 04:01:00,46.8,44.0,18.34,WSW,238,0.0,0.0,90,0.00,,,0.00,Wunderground v.1.15,2013-06-20 08:01:00,
2013-06-20 04:11:00,46.7,43.9,18.34,WSW,238,0.0,0.0,90,0.00,,,0.00,Wunderground v.1.15,2013-06-20 08:11:00,
2013-06-20 04:16:00,46.7,43.9,18.34,WSW,238,0.0,0.0,90,0.00,,,0.00,Wunderground v.1.15,2013-06-20 08:16:00,
2013-06-20 04:21:00,46.7,43.9,18.34,WSW,238,0.0,0.0,90,0.00,,,0.00,Wunderground v.1.15,2013-06-20 08:21:00,
2013-06-20 04:26:00,46.7,43.9,18.34,WSW,238,0.0,0.0,90,0.00,,,0.00,Wunderground v.1.15,2013-06-20 08:26:00,
2013-06-20 04:31:00,46.8,44.0,18.34,WSW,238,0.0,0.0,90,0.00,,,0.00,Wunderground v.1.15,2013-06-20 08:31:00,
2013-06-20 04:41:00,46.9,44.1,18.34,WSW,238,0.0,0.0,90,0.00,,,0.00,Wunderground v.1.15,2013-06-20 08:41:00,
2013-06-20 04:46:00,46.8,44.0,18.34,WSW,238,0.0,0.0,90,0.00,,,0.00,Wunderground v.1.15,2013-06-20 08:46:00,
2013-06-20 04:51:00,46.8,44.0,18.34,WSW,238,0.0,0.0,90,0.00,,,0.00,Wunderground v.1.15,2013-06-20 08:51:00,
2013-06-20 04:56:00,46.9,44.1,18.34,WSW,238,0.0,0.0,90,0.00,,,0.00,Wunderground v.1.15,2013-06-20 08:56:00,
2013-06-20 05:01:00,46.9,43.8,18.34,WSW,238,0.0,0.0,89,0.00,,,0.00,Wunderground v.1.15,2013-06-20 09:01:00,
2013-06-20 05:11:00,46.8,43.7,18.34,WSW,238,0.0,0.0,89,0.00,,,0.00,Wunderground v.1.15,2013-06-20 09:11:00,
2013-06-20 05:16:00,46.9,43.8,18.34,WSW,238,0.0,0.0,89,0.00,,,0.00,Wunderground v.1.15,2013-06-20 09:16:00,
2013-06-20 05:21:00,46.9,43.8,18.34,WSW,238,0.0,0.0,89,0.00,,,0.00,Wunderground v.1.15,2013-06-20 09:21:00,
2013-06-20 05:31:00,47.0,43.6,18.34,WSW,238,0.0,0.0,88,0.00,,,0.00,Wunderground v.1.15,2013-06-20 09:31:00,
2013-06-20 05:41:00,46.9,43.5,18.34,WSW,238,0.0,0.0,88,0.00,,,0.00,Wunderground v.1.15,2013-06-20 09:41:00,
2013-06-20 05:46:00,46.8,43.4,18.34,WSW,238,0.0,0.0,88,0.00,,,0.00,Wunderground v.1.15,2013-06-20 09:46:00,
2013-06-20 05:51:00,46.9,43.5,18.34,WSW,238,0.0,0.0,88,0.00,,,0.00,Wunderground v.1.15,2013-06-20 09:51:00,
2013-06-20 05:56:00,47.1,43.7,18.34,WSW,238,0.0,0.0,88,0.00,,,0.00,Wunderground v.1.15,2013-06-20 09:56:00,
2013-06-20 06:01:00,47.2,43.8,18.34,WSW,238,0.0,0.0,88,0.00,,,0.00,Wunderground v.1.15,2013-06-20 10:01:00,
2013-06-20 06:11:00,47.9,44.8,18.34,WSW,238,0.0,0.0,89,0.00,,,0.00,Wunderground v.1.15,2013-06-20 10:11:00,
2013-06-20 06:16:00,48.6,45.5,18.34,WSW,238,0.0,0.0,89,0.00,,,0.00,Wunderground v.1.15,2013-06-20 10:16:00,
2013-06-20 06:21:00,49.4,46.3,18.34,WSW,238,0.0,0.0,89,0.00,,,0.00,Wunderground v.1.15,2013-06-20 10:21:00,
2013-06-20 06:26:00,50.0,46.6,18.34,WSW,238,0.0,0.0,88,0.00,,,0.00,Wunderground v.1.15,2013-06-20 10:26:00,
2013-06-20 06:31:00,50.6,46.9,18.34,WSW,238,0.0,0.0,87,0.00,,,0.00,Wunderground v.1.15,2013-06-20 10:31:00,
2013-06-20 06:36:00,50.8,46.5,18.34,WSW,238,0.0,0.0,85,0.00,,,0.00,Wunderground v.1.15,2013-06-20 10:36:00,
2013-06-20 06:46:00,51.4,46.1,18.34,WSW,238,0.0,0.0,82,0.00,,,0.00,Wunderground v.1.15,2013-06-20 10:46:00,
2013-06-20 06:56:00,52.0,46.7,18.34,WSW,238,0.0,0.0,82,0.00,,,0.00,Wunderground v.1.15,2013-06-20 10:56:00,
2013-06-20 07:01:00,52.3,47.6,18.34,WSW,238,0.0,0.0,84,0.00,,,0.00,Wunderground v.1.15,2013-06-20 11:01:00,
2013-06-20 07:11:00,52.7,47.0,18.34,WSW,238,0.0,0.0,81,0.00,,,0.00,Wunderground v.1.15,2013-06-20 11:11:00,
2013-06-20 07:21:00,53.6,47.2,18.34,WSW,238,0.0,0.0,79,0.00,,,0.00,Wunderground v.1.15,2013-06-20 11:21:00,
2013-06-20 07:26:00,54.0,47.3,18.34,WSW,238,0.0,0.0,78,0.00,,,0.00,Wunderground v.1.15,2013-06-20 11:26:00,
2013-06-20 07:31:00,54.4,47.3,18.34,WSW,238,0.0,0.0,77,0.00,,,0.00,Wunderground v.1.15,2013-06-20 11:31:00,
2013-06-20 07:36:00,54.8,47.4,18.34,WSW,238,0.0,0.0,76,0.00,,,0.00,Wunderground v.1.15,2013-06-20 11:36:00,
2013-06-20 07:41:00,55.1,47.0,18.34,WSW,240,0.0,0.0,74,0.00,,,0.00,Wunderground v.1.15,2013-06-20 11:41:00,
2013-06-20 07:51:00,55.7,47.5,18.34,NNW,337,0.0,0.0,74,0.00,,,0.00,Wunderground v.1.15,2013-06-20 11:51:00,
2013-06-20 07:56:00,56.0,47.5,18.34,North,353,0.0,0.0,73,0.00,,,0.00,Wunderground v.1.15,2013-06-20 11:56:00,
2013-06-20 08:01:00,56.2,47.7,18.34,North,6,1.0,3.0,73,0.00,,,0.00,Wunderground v.1.15,2013-06-20 12:01:00,
2013-06-20 08:11:00,56.6,47.7,18.34,NNE,13,4.0,4.0,72,0.00,,,0.00,Wunderground v.1.15,2013-06-20 12:11:00,
2013-06-20 08:21:00,57.1,48.5,18.34,NNE,20,3.0,4.0,73,0.00,,,0.00,Wunderground v.1.15,2013-06-20 12:21:00,
2013-06-20 08:26:00,57.4,48.8,18.34,NNE,20,3.0,4.0,73,0.00,,,0.00,Wunderground v.1.15,2013-06-20 12:26:00,
2013-06-20 08:31:00,57.5,48.5,18.34,NNE,21,2.0,4.0,72,0.00,,,0.00,Wunderground v.1.15,2013-06-20 12:31:00,
2013-06-20 08:36:00,58.0,49.4,18.34,NNE,25,3.0,4.0,73,0.00,,,0.00,Wunderground v.1.15,2013-06-20 12:36:00,
2013-06-20 08:41:00,58.2,49.2,18.34,NNE,28,3.0,3.0,72,0.00,,,0.00,Wunderground v.1.15,2013-06-20 12:41:00,
2013-06-20 08:46:00,58.6,50.3,18.34,NNE,28,1.0,3.0,74,0.00,,,0.00,Wunderground v.1.15,2013-06-20 12:46:00,
2013-06-20 08:56:00,59.4,51.1,18.34,NE,35,2.0,6.0,74,0.00,,,0.00,Wunderground v.1.15,2013-06-20 12:56:00,
2013-06-20 09:01:00,59.7,51.4,18.34,NE,35,2.0,4.0,74,0.00,,,0.00,Wunderground v.1.15,2013-06-20 13:01:00,
2013-06-20 09:11:00,60.0,51.7,18.34,NE,42,3.0,3.0,74,0.00,,,0.00,Wunderground v.1.15,2013-06-20 13:11:00,
2013-06-20 09:16:00,60.4,52.1,18.34,ENE,59,3.0,3.0,74,0.00,,,0.00,Wunderground v.1.15,2013-06-20 13:16:00,
2013-06-20 09:26:00,61.0,52.3,18.34,ENE,59,3.0,4.0,73,0.00,,,0.00,Wunderground v.1.15,2013-06-20 13:26:00,
2013-06-20 09:35:00,61.6,52.9,18.34,ENE,74,2.0,3.0,73,0.00,,,0.00,Wunderground v.1.15,2013-06-20 13:35:00,
2013-06-20 09:40:00,62.0,52.5,18.34,ENE,72,3.0,3.0,71,0.00,,,0.00,Wunderground v.1.15,2013-06-20 13:40:00,
2013-06-20 09:45:00,62.6,53.1,18.34,ENE,76,3.0,6.0,71,0.00,,,0.00,Wunderground v.1.15,2013-06-20 13:45:00,
2013-06-20 09:51:00,62.9,52.2,18.34,ENE,76,4.0,4.0,68,0.00,,,0.00,Wunderground v.1.15,2013-06-20 13:51:00,
2013-06-20 09:56:00,63.2,52.9,18.34,East,86,4.0,6.0,69,0.00,,,0.00,Wunderground v.1.15,2013-06-20 13:56:00,
2013-06-20 10:01:00,63.5,52.3,18.34,East,86,4.0,6.0,67,0.00,,,0.00,Wunderground v.1.15,2013-06-20 14:01:00,
2013-06-20 10:11:00,63.8,51.8,18.34,East,82,6.0,6.0,65,0.00,,,0.00,Wunderground v.1.15,2013-06-20 14:11:00,
2013-06-20 10:16:00,64.1,52.5,18.34,East,84,6.0,6.0,66,0.00,,,0.00,Wunderground v.1.15,2013-06-20 14:16:00,
2013-06-20 10:21:00,64.4,52.0,18.34,East,82,5.0,5.0,64,0.00,,,0.00,Wunderground v.1.15,2013-06-20 14:21:00,
2013-06-20 10:31:00,64.7,51.8,18.34,East,87,4.0,4.0,63,0.00,,,0.00,Wunderground v.1.15,2013-06-20 14:31:00,
2013-06-20 10:36:00,65.1,53.0,18.34,East,80,3.0,4.0,65,0.00,,,0.00,Wunderground v.1.15,2013-06-20 14:36:00,
2013-06-20 10:41:00,65.4,52.9,18.34,East,80,2.0,2.0,64,0.00,,,0.00,Wunderground v.1.15,2013-06-20 14:41:00,
2013-06-20 10:46:00,65.6,53.5,18.34,ENE,75,2.0,3.0,65,0.00,,,0.00,Wunderground v.1.15,2013-06-20 14:46:00,
2013-06-20 10:51:00,66.1,53.6,18.34,ENE,75,2.0,3.0,64,0.00,,,0.00,Wunderground v.1.15,2013-06-20 14:51:00,
2013-06-20 11:01:00,66.1,53.6,18.34,East,84,3.0,3.0,64,0.00,,,0.00,Wunderground v.1.15,2013-06-20 15:01:00,
2013-06-20 11:11:00,66.5,53.9,18.34,East,84,0.0,0.0,64,0.00,,,0.00,Wunderground v.1.15,2013-06-20 15:11:00,
2013-06-20 11:16:00,66.8,53.8,18.34,East,82,1.0,1.0,63,0.00,,,0.00,Wunderground v.1.15,2013-06-20 15:16:00,
2013-06-20 11:21:00,67.1,54.9,18.34,East,81,2.0,4.0,65,0.00,,,0.00,Wunderground v.1.15,2013-06-20 15:21:00,
2013-06-20 11:26:00,67.2,54.2,18.34,ENE,70,2.0,4.0,63,0.00,,,0.00,Wunderground v.1.15,2013-06-20 15:26:00,
2013-06-20 11:36:00,67.7,55.1,18.34,ENE,70,1.0,2.0,64,0.00,,,0.00,Wunderground v.1.15,2013-06-20 15:36:00,
2013-06-20 11:41:00,68.1,55.9,18.34,ENE,68,2.0,2.0,65,0.00,,,0.00,Wunderground v.1.15,2013-06-20 15:41:00,
2013-06-20 11:46:00,68.3,55.2,18.34,East,88,3.0,3.0,63,0.00,,,0.00,Wunderground v.1.15,2013-06-20 15:46:00,
2013-06-20 11:51:00,68.6,55.1,18.34,East,101,2.0,2.0,62,0.00,,,0.00,Wunderground v.1.15,2013-06-20 15:51:00,
2013-06-20 11:56:00,69.0,55.0,18.34,ESE,109,1.0,2.0,61,0.00,,,0.00,Wunderground v.1.15,2013-06-20 15:56:00,
2013-06-20 12:01:00,69.5,55.5,18.34,ESE,107,1.0,2.0,61,0.00,,,0.00,Wunderground v.1.15,2013-06-20 16:01:00,
2013-06-20 12:11:00,69.8,55.3,18.34,East,101,1.0,1.0,60,0.00,,,0.00,Wunderground v.1.15,2013-06-20 16:11:00,
2013-06-20 12:16:00,69.9,55.8,18.34,East,90,1.0,3.0,61,0.00,,,0.00,Wunderground v.1.15,2013-06-20 16:16:00,
2013-06-20 12:26:00,69.8,54.8,18.34,ENE,73,3.0,5.0,59,0.00,,,0.00,Wunderground v.1.15,2013-06-20 16:26:00,
2013-06-20 12:36:00,69.8,54.8,18.34,ENE,75,4.0,7.0,59,0.00,,,0.00,Wunderground v.1.15,2013-06-20 16:36:00,
2013-06-20 12:41:00,69.9,55.4,18.34,ENE,75,3.0,3.0,60,0.00,,,0.00,Wunderground v.1.15,2013-06-20 16:41:00,
2013-06-20 12:46:00,70.2,56.1,18.34,ENE,75,1.0,3.0,61,0.00,,,0.00,Wunderground v.1.15,2013-06-20 16:46:00,
2013-06-20 12:51:00,70.9,56.3,18.34,ENE,75,1.0,3.0,60,0.00,,,0.00,Wunderground v.1.15,2013-06-20 16:51:00,
2013-06-20 12:56:00,71.6,55.6,18.34,SSW,201,1.0,3.0,57,0.00,,,0.00,Wunderground v.1.15,2013-06-20 16:56:00,
2013-06-20 13:01:00,71.6,55.6,18.34,ENE,74,2.0,2.0,57,0.00,,,0.00,Wunderground v.1.15,2013-06-20 17:01:00,
2013-06-20 13:11:00,72.6,55.5,18.34,ENE,76,1.0,1.0,55,0.00,,,0.00,Wunderground v.1.15,2013-06-20 17:11:00,
2013-06-20 13:21:00,72.9,55.3,18.34,ENE,67,2.0,2.0,54,0.00,,,0.00,Wunderground v.1.15,2013-06-20 17:21:00,
2013-06-20 13:26:00,72.9,55.3,18.34,East,88,3.0,3.0,54,0.00,,,0.00,Wunderground v.1.15,2013-06-20 17:26:00,
2013-06-20 13:31:00,72.8,55.2,18.34,ENE,68,3.0,8.0,54,0.00,,,0.00,Wunderground v.1.15,2013-06-20 17:31:00,
2013-06-20 13:41:00,72.6,55.5,18.34,ENE,72,2.0,2.0,55,0.00,,,0.00,Wunderground v.1.15,2013-06-20 17:41:00,
2013-06-20 13:46:00,72.8,55.7,18.34,ENE,72,1.0,2.0,55,0.00,,,0.00,Wunderground v.1.15,2013-06-20 17:46:00,
2013-06-20 13:51:00,72.9,55.8,18.34,ENE,73,2.0,2.0,55,0.00,,,0.00,Wunderground v.1.15,2013-06-20 17:51:00,
2013-06-20 13:56:00,73.4,55.7,18.34,South,186,2.0,2.0,54,0.00,,,0.00,Wunderground v.1.15,2013-06-20 17:56:00,
2013-06-20 14:01:00,73.8,56.6,18.34,ENE,65,1.0,5.0,55,0.00,,,0.00,Wunderground v.1.15,2013-06-20 18:01:00,
2013-06-20 14:11:00,73.3,57.1,18.34,East,87,3.0,3.0,57,0.00,,,0.00,Wunderground v.1.15,2013-06-20 18:11:00,
2013-06-20 14:16:00,73.5,55.8,18.34,East,82,2.0,3.0,54,0.00,,,0.00,Wunderground v.1.15,2013-06-20 18:16:00,
2013-06-20 14:26:00,73.5,55.8,18.34,East,79,3.0,6.0,54,0.00,,,0.00,Wunderground v.1.15,2013-06-20 18:26:00,
2013-06-20 14:31:00,73.4,55.2,18.34,East,80,3.0,3.0,53,0.00,,,0.00,Wunderground v.1.15,2013-06-20 18:31:00,
2013-06-20 14:36:00,73.8,56.1,18.34,ENE,78,2.0,3.0,54,0.00,,,0.00,Wunderground v.1.15,2013-06-20 18:36:00,
2013-06-20 14:46:00,73.5,56.8,18.34,ENE,68,2.0,2.0,56,0.00,,,0.00,Wunderground v.1.15,2013-06-20 18:46:00,
2013-06-20 14:51:00,73.6,57.4,18.34,ENE,63,2.0,2.0,57,0.00,,,0.00,Wunderground v.1.15,2013-06-20 18:51:00,
2013-06-20 14:56:00,73.9,57.2,18.34,ENE,73,1.0,2.0,56,0.00,,,0.00,Wunderground v.1.15,2013-06-20 18:56:00,
2013-06-20 15:01:00,74.7,58.0,18.34,South,180,1.0,1.0,56,0.00,,,0.00,Wunderground v.1.15,2013-06-20 19:01:00,
2013-06-20 15:11:00,75.5,58.2,18.34,ESE,111,1.0,1.0,55,0.00,,,0.00,Wunderground v.1.15,2013-06-20 19:11:00,
2013-06-20 15:21:00,75.2,55.3,18.34,ENE,63,2.0,2.0,50,0.00,,,0.00,Wunderground v.1.15,2013-06-20 19:21:00,
2013-06-20 15:26:00,74.9,57.6,18.34,South,173,1.0,2.0,55,0.00,,,0.00,Wunderground v.1.15,2013-06-20 19:26:00,
2013-06-20 15:31:00,74.9,56.1,18.34,South,183,0.0,5.0,52,0.00,,,0.00,Wunderground v.1.15,2013-06-20 19:31:00,
2013-06-20 15:36:00,75.0,57.2,18.34,South,183,1.0,5.0,54,0.00,,,0.00,Wunderground v.1.15,2013-06-20 19:36:00,
2013-06-20 15:41:00,75.5,56.1,18.34,SW,214,1.0,1.0,51,0.00,,,0.00,Wunderground v.1.15,2013-06-20 19:41:00,
2013-06-20 15:51:00,75.3,57.0,18.34,West,259,1.0,1.0,53,0.00,,,0.00,Wunderground v.1.15,2013-06-20 19:51:00,
2013-06-20 15:56:00,75.0,55.6,18.34,ENE,66,1.0,1.0,51,0.00,,,0.00,Wunderground v.1.15,2013-06-20 19:56:00,
2013-06-20 16:01:00,74.8,57.5,18.34,ENE,70,1.0,1.0,55,0.00,,,0.00,Wunderground v.1.15,2013-06-20 20:01:00,
2013-06-20 16:11:00,75.4,57.1,18.34,NE,55,1.0,4.0,53,0.00,,,0.00,Wunderground v.1.15,2013-06-20 20:11:00,
2013-06-20 16:16:00,75.6,57.8,18.34,ENE,71,1.0,4.0,54,0.00,,,0.00,Wunderground v.1.15,2013-06-20 20:16:00,
2013-06-20 16:26:00,75.2,55.8,18.34,ENE,76,1.0,2.0,51,0.00,,,0.00,Wunderground v.1.15,2013-06-20 20:26:00,
2013-06-20 16:31:00,75.2,56.4,18.34,ENE,76,0.0,0.0,52,0.00,,,0.00,Wunderground v.1.15,2013-06-20 20:31:00,
2013-06-20 16:36:00,75.4,57.1,18.34,East,84,0.0,6.0,53,0.00,,,0.00,Wunderground v.1.15,2013-06-20 20:36:00,
2013-06-20 16:41:00,75.1,57.3,18.34,ENE,75,1.0,1.0,54,0.00,,,0.00,Wunderground v.1.15,2013-06-20 20:41:00,
2013-06-20 16:46:00,75.4,58.1,18.34,East,86,1.0,1.0,55,0.00,,,0.00,Wunderground v.1.15,2013-06-20 20:46:00,
2013-06-20 16:56:00,75.8,57.4,18.34,ESE,121,0.0,1.0,53,0.00,,,0.00,Wunderground v.1.15,2013-06-20 20:56:00,
2013-06-20 17:01:00,75.8,58.0,18.34,SSE,155,0.0,0.0,54,0.00,,,0.00,Wunderground v.1.15,2013-06-20 21:01:00,
2013-06-20 17:11:00,75.5,56.6,18.34,South,172,1.0,1.0,52,0.00,,,0.00,Wunderground v.1.15,2013-06-20 21:11:00,
2013-06-20 17:16:00,75.3,57.5,18.34,South,172,0.0,1.0,54,0.00,,,0.00,Wunderground v.1.15,2013-06-20 21:16:00,
2013-06-20 17:21:00,75.3,57.5,18.34,South,180,0.0,0.0,54,0.00,,,0.00,Wunderground v.1.15,2013-06-20 21:21:00,
2013-06-20 17:31:00,75.5,57.7,18.34,SSW,203,0.0,5.0,54,0.00,,,0.00,Wunderground v.1.15,2013-06-20 21:31:00,
2013-06-20 17:36:00,75.5,57.7,18.34,SSW,201,0.0,5.0,54,0.00,,,0.00,Wunderground v.1.15,2013-06-20 21:36:00,
2013-06-20 17:41:00,75.5,57.7,18.34,South,186,1.0,1.0,54,0.00,,,0.00,Wunderground v.1.15,2013-06-20 21:41:00,
2013-06-20 17:51:00,75.1,57.8,18.34,South,190,1.0,1.0,55,0.00,,,0.00,Wunderground v.1.15,2013-06-20 21:51:00,
2013-06-20 18:01:00,74.9,57.6,18.34,South,187,1.0,5.0,55,0.00,,,0.00,Wunderground v.1.15,2013-06-20 22:01:00,
2013-06-20 18:11:00,74.9,58.1,18.34,South,181,1.0,1.0,56,0.00,,,0.00,Wunderground v.1.15,2013-06-20 22:11:00,
2013-06-20 18:16:00,74.8,57.5,18.34,South,186,2.0,2.0,55,0.00,,,0.00,Wunderground v.1.15,2013-06-20 22:16:00,
2013-06-20 18:21:00,74.6,58.8,18.34,SSW,209,2.0,4.0,58,0.00,,,0.00,Wunderground v.1.15,2013-06-20 22:21:00,
2013-06-20 18:31:00,72.8,58.6,18.34,WSW,257,5.0,5.0,61,0.00,,,0.00,Wunderground v.1.15,2013-06-20 22:31:00,
2013-06-20 18:36:00,72.1,58.4,18.34,WSW,255,4.0,5.0,62,0.00,,,0.00,Wunderground v.1.15,2013-06-20 22:36:00,
2013-06-20 18:41:00,71.8,58.5,18.34,WSW,257,4.0,4.0,63,0.00,,,0.00,Wunderground v.1.15,2013-06-20 22:41:00,
2013-06-20 18:46:00,71.2,58.0,18.34,WSW,257,4.0,4.0,63,0.00,,,0.00,Wunderground v.1.15,2013-06-20 22:46:00,
2013-06-20 18:56:00,70.7,57.9,18.34,West,261,3.0,12.0,64,0.00,,,0.00,Wunderground v.1.15,2013-06-20 22:56:00,
2013-06-20 19:01:00,70.6,58.3,18.34,West,261,3.0,4.0,65,0.00,,,0.00,Wunderground v.1.15,2013-06-20 23:01:00,
2013-06-20 19:11:00,70.1,57.8,18.34,WSW,249,4.0,4.0,65,0.00,,,0.00,Wunderground v.1.15,2013-06-20 23:11:00,
2013-06-20 19:16:00,69.9,57.6,18.34,WSW,255,4.0,8.0,65,0.00,,,0.00,Wunderground v.1.15,2013-06-20 23:16:00,
2013-06-20 19:21:00,69.7,58.3,18.34,WSW,255,5.0,5.0,67,0.00,,,0.00,Wunderground v.1.15,2013-06-20 23:21:00,
2013-06-20 19:26:00,69.5,57.2,18.34,WSW,257,5.0,5.0,65,0.00,,,0.00,Wunderground v.1.15,2013-06-20 23:26:00,
2013-06-20 19:36:00,69.0,57.2,18.34,WSW,250,5.0,6.0,66,0.00,,,0.00,Wunderground v.1.15,2013-06-20 23:36:00,
2013-06-20 19:41:00,68.8,57.0,18.34,WSW,257,5.0,5.0,66,0.00,,,0.00,Wunderground v.1.15,2013-06-20 23:41:00,
2013-06-20 19:46:00,68.6,56.8,18.34,WSW,255,4.0,6.0,66,0.00,,,0.00,Wunderground v.1.15,2013-06-20 23:46:00,
2013-06-20 19:51:00,68.3,56.5,18.34,West,261,3.0,5.0,66,0.00,,,0.00,Wunderground v.1.15,2013-06-20 23:51:00,
2013-06-20 19:56:00,68.0,56.6,18.34,WSW,255,4.0,5.0,67,0.00,,,0.00,Wunderground v.1.15,2013-06-20 23:56:00,
2013-06-20 20:01:00,67.6,55.8,18.34,West,259,5.0,5.0,66,0.00,,,0.00,Wunderground v.1.15,2013-06-21 00:01:00,
2013-06-20 20:11:00,67.0,54.4,18.34,WSW,251,6.0,6.0,64,0.00,,,0.00,Wunderground v.1.15,2013-06-21 00:11:00,
2013-06-20 20:16:00,66.7,53.7,18.34,WSW,253,5.0,6.0,63,0.00,,,0.00,Wunderground v.1.15,2013-06-21 00:16:00,
2013-06-20 20:21:00,66.3,53.3,18.34,WSW,251,6.0,6.0,63,0.00,,,0.00,Wunderground v.1.15,2013-06-21 00:21:00,
2013-06-20 20:26:00,66.0,52.6,18.34,WSW,256,5.0,6.0,62,0.00,,,0.00,Wunderground v.1.15,2013-06-21 00:26:00,
2013-06-20 20:36:00,65.4,51.1,18.34,WSW,255,6.0,6.0,60,0.00,,,0.00,Wunderground v.1.15,2013-06-21 00:36:00,
2013-06-20 20:41:00,65.2,51.0,18.34,West,262,6.0,7.0,60,0.00,,,0.00,Wunderground v.1.15,2013-06-21 00:41:00,
2013-06-20 20:46:00,65.1,50.9,18.34,West,262,7.0,9.0,60,0.00,,,0.00,Wunderground v.1.15,2013-06-21 00:46:00,
2013-06-20 20:51:00,65.0,51.2,18.34,West,262,6.0,7.0,61,0.00,,,0.00,Wunderground v.1.15,2013-06-21 00:51:00,
2013-06-20 20:56:00,64.8,50.6,18.34,WSW,255,6.0,7.0,60,0.00,,,0.00,Wunderground v.1.15,2013-06-21 00:56:00,
2013-06-20 21:01:00,64.5,50.7,18.34,WSW,257,6.0,6.0,61,0.00,,,0.00,Wunderground v.1.15,2013-06-21 01:01:00,
2013-06-20 21:11:00,63.5,50.7,18.34,West,262,5.0,5.0,63,0.00,,,0.00,Wunderground v.1.15,2013-06-21 01:11:00,
2013-06-20 21:16:00,63.1,51.1,18.34,West,263,4.0,5.0,65,0.00,,,0.00,Wunderground v.1.15,2013-06-21 01:16:00,
2013-06-20 21:21:00,62.5,51.4,18.34,West,263,3.0,3.0,67,0.00,,,0.00,Wunderground v.1.15,2013-06-21 01:21:00,
2013-06-20 21:26:00,62.0,50.9,18.34,West,261,3.0,5.0,67,0.00,,,0.00,Wunderground v.1.15,2013-06-21 01:26:00,
2013-06-20 21:31:00,61.9,50.8,18.34,West,261,4.0,4.0,67,0.00,,,0.00,Wunderground v.1.15,2013-06-21 01:31:00,
2013-06-20 21:36:00,62.3,49.5,18.34,WSW,251,5.0,7.0,63,0.00,,,0.00,Wunderground v.1.15,2013-06-21 01:36:00,
2013-06-20 21:46:00,63.1,49.4,18.34,WSW,255,6.0,7.0,61,0.00,,,0.00,Wunderground v.1.15,2013-06-21 01:46:00,
2013-06-20 21:51:00,63.2,49.5,18.34,WSW,256,6.0,6.0,61,0.00,,,0.00,Wunderground v.1.15,2013-06-21 01:51:00,
2013-06-20 21:56:00,63.1,49.4,18.34,West,266,6.0,6.0,61,0.00,,,0.00,Wunderground v.1.15,2013-06-21 01:56:00,
2013-06-20 22:01:00,63.0,49.3,18.34,WSW,254,6.0,6.0,61,0.00,,,0.00,Wunderground v.1.15,2013-06-21 02:01:00,
2013-06-20 22:11:00,63.0,48.9,18.34,WSW,254,7.0,7.0,60,0.00,,,0.00,Wunderground v.1.15,2013-06-21 02:11:00,
2013-06-20 22:16:00,63.0,48.9,18.34,WSW,249,7.0,7.0,60,0.00,,,0.00,Wunderground v.1.15,2013-06-21 02:16:00,
2013-06-20 22:21:00,62.9,48.8,18.34,WSW,252,6.0,8.0,60,0.00,,,0.00,Wunderground v.1.15,2013-06-21 02:21:00,
2013-06-20 22:26:00,62.9,48.8,18.34,West,264,6.0,8.0,60,0.00,,,0.00,Wunderground v.1.15,2013-06-21 02:26:00,
2013-06-20 22:31:00,62.7,49.1,18.34,West,264,5.0,5.0,61,0.00,,,0.00,Wunderground v.1.15,2013-06-21 02:31:00,
2013-06-20 22:36:00,62.2,48.6,18.34,West,259,4.0,5.0,61,0.00,,,0.00,Wunderground v.1.15,2013-06-21 02:36:00,
2013-06-20 22:41:00,61.9,48.3,18.34,WSW,253,5.0,6.0,61,0.00,,,0.00,Wunderground v.1.15,2013-06-21 02:41:00,
2013-06-20 22:51:00,62.1,48.0,18.34,WSW,251,4.0,4.0,60,0.00,,,0.00,Wunderground v.1.15,2013-06-21 02:51:00,
2013-06-20 22:56:00,62.0,48.4,18.34,WSW,251,2.0,4.0,61,0.00,,,0.00,Wunderground v.1.15,2013-06-21 02:56:00,
2013-06-20 23:01:00,61.6,48.4,18.34,WSW,251,0.0,0.0,62,0.00,,,0.00,Wunderground v.1.15,2013-06-21 03:01:00,
2013-06-20 23:11:00,60.0,49.4,18.34,WSW,251,0.0,2.0,68,0.00,,,0.00,Wunderground v.1.15,2013-06-21 03:11:00,
2013-06-20 23:21:00,58.9,49.1,18.34,WSW,251,2.0,2.0,70,0.00,,,0.00,Wunderground v.1.15,2013-06-21 03:21:00,
2013-06-20 23:26:00,58.7,48.9,18.34,WSW,251,2.0,2.0,70,0.00,,,0.00,Wunderground v.1.15,2013-06-21 03:26:00,
2013-06-20 23:31:00,58.8,49.0,18.34,WSW,251,1.0,1.0,70,0.00,,,0.00,Wunderground v.1.15,2013-06-21 03:31:00,
2013-06-20 23:36:00,58.7,49.3,18.34,WSW,251,0.0,1.0,71,0.00,,,0.00,Wunderground v.1.15,2013-06-21 03:36:00,
2013-06-20 23:41:00,58.5,49.1,18.34,WSW,251,0.0,0.0,71,0.00,,,0.00,Wunderground v.1.15,2013-06-21 03:41:00,
2013-06-20 23:51:00,58.4,49.4,18.34,WSW,251,0.0,0.0,72,0.00,,,0.00,Wunderground v.1.15,2013-06-21 03:51:00,
2013-06-20 23:56:00,58.2,49.2,18.34,WSW,251,0.0,0.0,72,0.00,,,0.00,Wunderground v.1.15,2013-06-21 03:56:00,